Time;durP1;ratioP1;P1;durP2;ratioP2;P2;SDS_P1;SDS_P2;PMS_P1;PMS_P2;Temp;Humidity;BMP_temperature;BMP_pressure;BME280_temperature;BME280_humidity;BME280_pressure;Samples;Min_cycle;Max_cycle;Signal;HPM_P1;HPM_P2
2021/08/25 00:00:38;;;;;;;6.43;4.53;;;;;;;;;;5050911;28;20453;-69
2021/08/25 00:03:05;;;;;;;7.80;5.00;;;;;;;;;;5033489;28;20840;-68
2021/08/25 00:05:32;;;;;;;7.27;5.10;;;;;;;;;;5032965;28;20399;-68
2021/08/25 00:07:58;;;;;;;5.73;4.87;;;;;;;;;;5052740;28;20425;-68
2021/08/25 00:10:24;;;;;;;8.37;5.53;;;;;;;;;;5053207;28;20405;-69
2021/08/25 00:12:50;;;;;;;8.23;5.70;;;;;;;;;;5051885;28;20433;-68
2021/08/25 00:15:15;;;;;;;6.80;5.00;;;;;;;;;;5051436;28;20421;-68
2021/08/25 00:17:41;;;;;;;6.37;5.20;;;;;;;;;;5051840;28;20816;-67
2021/08/25 00:20:08;;;;;;;7.23;5.63;;;;;;;;;;5053184;28;20529;-68
2021/08/25 00:22:34;;;;;;;6.97;5.23;;;;;;;;;;5051594;28;20433;-68
2021/08/25 00:25:00;;;;;;;5.90;4.67;;;;;;;;;;5053289;28;20827;-68
2021/08/25 00:27:26;;;;;;;5.60;4.40;;;;;;;;;;5037317;28;20426;-68
2021/08/25 00:29:52;;;;;;;8.10;6.13;;;;;;;;;;5033030;28;20402;-68
2021/08/25 00:32:18;;;;;;;5.20;4.70;;;;;;;;;;5046101;28;20521;-68
2021/08/25 00:34:44;;;;;;;6.53;5.63;;;;;;;;;;5048881;28;20457;-68
2021/08/25 00:37:10;;;;;;;9.00;5.20;;;;;;;;;;5045001;28;20430;-68
2021/08/25 00:39:36;;;;;;;6.67;4.87;;;;;;;;;;5052961;28;20457;-68
2021/08/25 00:42:02;;;;;;;8.97;4.97;;;;;;;;;;5041142;28;20480;-68
2021/08/25 00:44:28;;;;;;;7.50;5.70;;;;;;;;;;5033274;28;20796;-68
2021/08/25 00:46:54;;;;;;;6.50;5.80;;;;;;;;;;5043701;28;20915;-68
2021/08/25 00:49:20;;;;;;;6.20;5.20;;;;;;;;;;5056731;28;20866;-68
2021/08/25 00:51:47;;;;;;;6.60;4.70;;;;;;;;;;5055529;28;20434;-68
2021/08/25 00:54:16;;;;;;;7.33;5.07;;;;;;;;;;5057204;28;20485;-67
2021/08/25 00:56:45;;;;;;;6.77;5.60;;;;;;;;;;5055413;28;20555;-68
2021/08/25 00:59:12;;;;;;;7.43;5.00;;;;;;;;;;5056155;28;20489;-68
2021/08/25 01:01:47;;;;;;;6.73;5.07;;;;;;;;;;5055186;28;20433;-68
2021/08/25 01:04:18;;;;;;;6.83;5.67;;;;;;;;;;5056497;28;20405;-68
2021/08/25 01:06:45;;;;;;;6.40;5.03;;;;;;;;;;5055228;28;20430;-68
2021/08/25 01:09:11;;;;;;;6.63;5.77;;;;;;;;;;5055124;28;20481;-68
2021/08/25 01:11:42;;;;;;;6.40;5.27;;;;;;;;;;5053926;28;20980;-68
2021/08/25 01:14:08;;;;;;;8.10;6.00;;;;;;;;;;5056756;28;20887;-68
2021/08/25 01:16:35;;;;;;;9.73;6.93;;;;;;;;;;5049660;28;20435;-68
2021/08/25 01:19:22;;;;;;;6.90;6.07;;;;;;;;;;5053879;28;20847;-68
2021/08/25 01:21:48;;;;;;;7.50;5.93;;;;;;;;;;5047185;28;20418;-68
2021/08/25 01:24:16;;;;;;;8.23;5.60;;;;;;;;;;5055893;28;20401;-68
2021/08/25 01:26:42;;;;;;;7.63;5.70;;;;;;;;;;5054112;28;20422;-68
2021/08/25 01:29:28;;;;;;;7.80;6.40;;;;;;;;;;5055461;28;20504;-68
2021/08/25 01:31:55;;;;;;;9.50;6.23;;;;;;;;;;5051570;28;20783;-69
2021/08/25 01:34:21;;;;;;;7.37;6.57;;;;;;;;;;5035492;28;20406;-68
2021/08/25 01:36:51;;;;;;;7.73;6.23;;;;;;;;;;5037091;28;20461;-68
2021/08/25 01:39:17;;;;;;;7.10;5.97;;;;;;;;;;5055280;28;20476;-68
2021/08/25 01:41:43;;;;;;;8.10;6.43;;;;;;;;;;5054142;28;20468;-68
2021/08/25 01:44:09;;;;;;;9.70;6.33;;;;;;;;;;5055688;28;20413;-68
2021/08/25 01:46:40;;;;;;;10.20;6.00;;;;;;;;;;5054387;28;20399;-69
2021/08/25 01:49:07;;;;;;;8.53;6.17;;;;;;;;;;5035382;28;20429;-67
2021/08/25 01:51:33;;;;;;;8.27;6.10;;;;;;;;;;5034937;28;20493;-68
2021/08/25 01:54:00;;;;;;;8.73;6.47;;;;;;;;;;5037000;28;20439;-68
2021/08/25 01:56:27;;;;;;;10.60;7.10;;;;;;;;;;5035121;28;20464;-68
2021/08/25 01:58:53;;;;;;;7.80;6.10;;;;;;;;;;5053131;28;20531;-68
2021/08/25 02:01:19;;;;;;;9.90;6.83;;;;;;;;;;5055009;28;20398;-68
2021/08/25 02:03:45;;;;;;;8.93;6.80;;;;;;;;;;5036221;28;20430;-68
2021/08/25 02:06:11;;;;;;;8.17;6.37;;;;;;;;;;5035006;28;20395;-68
2021/08/25 02:08:37;;;;;;;11.37;7.20;;;;;;;;;;5050425;28;20774;-68
2021/08/25 02:11:03;;;;;;;7.03;6.33;;;;;;;;;;5054852;28;20891;-68
2021/08/25 02:13:29;;;;;;;6.73;6.00;;;;;;;;;;5054026;28;20836;-68
2021/08/25 02:15:55;;;;;;;10.00;6.73;;;;;;;;;;5054686;28;20504;-68
2021/08/25 02:18:21;;;;;;;8.73;6.87;;;;;;;;;;5053122;28;20449;-68
2021/08/25 02:20:47;;;;;;;7.60;5.80;;;;;;;;;;5053372;28;20457;-68
2021/08/25 02:23:13;;;;;;;8.43;6.50;;;;;;;;;;5053401;28;20484;-68
2021/08/25 02:25:39;;;;;;;8.17;6.70;;;;;;;;;;5053244;28;20427;-69
2021/08/25 02:28:06;;;;;;;7.13;6.33;;;;;;;;;;5034975;28;20446;-69
2021/08/25 02:30:32;;;;;;;8.40;7.27;;;;;;;;;;5034700;28;20403;-68
2021/08/25 02:32:58;;;;;;;9.93;7.93;;;;;;;;;;5034617;28;20434;-68
2021/08/25 02:35:24;;;;;;;9.77;7.20;;;;;;;;;;5034605;28;20399;-68
2021/08/25 02:37:50;;;;;;;9.97;6.80;;;;;;;;;;5042949;28;20446;-68
2021/08/25 02:40:16;;;;;;;8.73;7.83;;;;;;;;;;5054852;28;20475;-68
2021/08/25 02:42:42;;;;;;;8.90;7.70;;;;;;;;;;5053999;28;20793;-67
2021/08/25 02:45:09;;;;;;;8.60;7.30;;;;;;;;;;5055445;28;20757;-68
2021/08/25 02:47:35;;;;;;;9.43;7.57;;;;;;;;;;5053452;28;20966;-67
2021/08/25 02:50:01;;;;;;;12.80;8.17;;;;;;;;;;5054776;28;20883;-67
2021/08/25 02:52:27;;;;;;;10.90;8.57;;;;;;;;;;5045936;28;20468;-68
2021/08/25 02:54:53;;;;;;;10.10;7.50;;;;;;;;;;5039304;28;20415;-68
2021/08/25 02:57:19;;;;;;;10.53;8.60;;;;;;;;;;5049431;28;20440;-68
2021/08/25 02:59:45;;;;;;;9.73;7.50;;;;;;;;;;5051648;28;22594;-68
2021/08/25 03:02:11;;;;;;;10.23;7.97;;;;;;;;;;5035909;28;20433;-69
2021/08/25 03:04:37;;;;;;;15.50;8.37;;;;;;;;;;5054225;28;20528;-68
2021/08/25 03:07:03;;;;;;;9.30;7.40;;;;;;;;;;5052784;28;20455;-69
2021/08/25 03:09:29;;;;;;;10.97;8.03;;;;;;;;;;5053628;28;20425;-68
2021/08/25 03:11:56;;;;;;;10.30;8.40;;;;;;;;;;5052957;28;20768;-68
2021/08/25 03:14:22;;;;;;;10.43;7.27;;;;;;;;;;5053996;28;20418;-68
2021/08/25 03:16:48;;;;;;;14.63;8.40;;;;;;;;;;5053874;28;20952;-68
2021/08/25 03:19:14;;;;;;;10.53;8.40;;;;;;;;;;5052896;28;20465;-68
2021/08/25 03:21:41;;;;;;;11.10;8.97;;;;;;;;;;5053973;28;20449;-68
2021/08/25 03:24:08;;;;;;;9.60;8.20;;;;;;;;;;5052829;28;20417;-67
2021/08/25 03:26:34;;;;;;;11.23;9.17;;;;;;;;;;5053906;28;20402;-68
2021/08/25 03:29:00;;;;;;;11.77;8.37;;;;;;;;;;5052672;28;20504;-68
2021/08/25 03:31:26;;;;;;;10.17;7.50;;;;;;;;;;5054005;28;20764;-68
2021/08/25 03:33:52;;;;;;;12.70;7.73;;;;;;;;;;5049626;28;20456;-68
2021/08/25 03:36:18;;;;;;;10.00;7.93;;;;;;;;;;5034872;28;20802;-68
2021/08/25 03:38:44;;;;;;;11.60;7.60;;;;;;;;;;5052525;28;20843;-68
2021/08/25 03:41:10;;;;;;;10.47;7.77;;;;;;;;;;5054021;28;20434;-68
2021/08/25 03:43:36;;;;;;;11.00;9.00;;;;;;;;;;5055096;28;20859;-68
2021/08/25 03:46:02;;;;;;;10.00;8.83;;;;;;;;;;5054072;28;20407;-68
2021/08/25 03:48:29;;;;;;;11.87;8.20;;;;;;;;;;5052903;28;20463;-68
2021/08/25 03:50:55;;;;;;;11.37;9.27;;;;;;;;;;5054399;28;20406;-67
2021/08/25 03:53:21;;;;;;;12.17;10.20;;;;;;;;;;5048632;28;20437;-67
2021/08/25 03:55:47;;;;;;;9.50;7.80;;;;;;;;;;5053959;28;20406;-67
2021/08/25 03:58:13;;;;;;;11.70;10.30;;;;;;;;;;5052660;28;20529;-67
2021/08/25 04:00:39;;;;;;;10.40;8.40;;;;;;;;;;5053515;28;20479;-67
2021/08/25 04:03:05;;;;;;;9.93;8.60;;;;;;;;;;5052956;28;20433;-68
2021/08/25 04:05:31;;;;;;;12.90;8.73;;;;;;;;;;5054101;28;20405;-68
2021/08/25 04:07:57;;;;;;;12.17;9.23;;;;;;;;;;5047768;28;20445;-69
2021/08/25 04:10:23;;;;;;;13.90;9.20;;;;;;;;;;5055969;28;20409;-68
2021/08/25 04:12:49;;;;;;;10.13;8.60;;;;;;;;;;5053355;28;20461;-68
2021/08/25 04:15:15;;;;;;;13.53;10.00;;;;;;;;;;5053546;28;20437;-68
2021/08/25 04:17:41;;;;;;;11.17;9.33;;;;;;;;;;5051888;28;20453;-68
2021/08/25 04:20:07;;;;;;;13.00;10.50;;;;;;;;;;5053329;28;20451;-68
2021/08/25 04:22:33;;;;;;;12.97;9.17;;;;;;;;;;5055111;28;20909;-68
2021/08/25 04:24:59;;;;;;;11.87;9.60;;;;;;;;;;5057271;28;20413;-67
2021/08/25 04:27:25;;;;;;;12.77;9.47;;;;;;;;;;5056527;28;20414;-69
2021/08/25 04:29:51;;;;;;;14.03;10.93;;;;;;;;;;5057261;28;20981;-68
2021/08/25 04:32:17;;;;;;;14.50;10.70;;;;;;;;;;5057479;28;20756;-68
2021/08/25 04:34:43;;;;;;;12.47;9.90;;;;;;;;;;5056478;28;20422;-68
2021/08/25 04:37:09;;;;;;;12.73;9.53;;;;;;;;;;5057150;28;20435;-68
2021/08/25 04:39:35;;;;;;;11.73;9.87;;;;;;;;;;5054123;28;20607;-68
2021/08/25 04:42:01;;;;;;;16.57;11.93;;;;;;;;;;5051159;28;20514;-68
2021/08/25 04:44:27;;;;;;;12.37;10.07;;;;;;;;;;5055956;28;20426;-68
2021/08/25 04:46:53;;;;;;;13.80;10.10;;;;;;;;;;5057363;28;20460;-68
2021/08/25 04:49:19;;;;;;;14.60;10.90;;;;;;;;;;5055570;28;20934;-68
2021/08/25 04:51:45;;;;;;;15.60;10.50;;;;;;;;;;5056930;28;20406;-68
2021/08/25 04:54:11;;;;;;;13.77;9.80;;;;;;;;;;5055730;28;20444;-68
2021/08/25 04:56:37;;;;;;;13.17;11.43;;;;;;;;;;5056867;28;20767;-68
2021/08/25 04:59:04;;;;;;;14.47;11.57;;;;;;;;;;5055286;28;20454;-68
2021/08/25 05:01:30;;;;;;;15.67;10.80;;;;;;;;;;5056721;28;20413;-68
2021/08/25 05:03:56;;;;;;;17.60;11.03;;;;;;;;;;5055631;28;20418;-68
2021/08/25 05:06:22;;;;;;;15.93;12.67;;;;;;;;;;5056436;28;20398;-68
2021/08/25 05:08:48;;;;;;;11.70;10.30;;;;;;;;;;5055522;28;20878;-68
2021/08/25 05:11:14;;;;;;;15.83;11.27;;;;;;;;;;5055792;28;20410;-68
2021/08/25 05:13:41;;;;;;;14.47;10.90;;;;;;;;;;5053602;28;20429;-68
2021/08/25 05:16:11;;;;;;;13.77;10.10;;;;;;;;;;5052854;28;20460;-67
2021/08/25 05:18:37;;;;;;;13.50;11.00;;;;;;;;;;5054273;28;20520;-67
2021/08/25 05:21:03;;;;;;;16.70;10.37;;;;;;;;;;5055579;28;20460;-67
2021/08/25 05:23:29;;;;;;;14.17;11.40;;;;;;;;;;5054796;28;20775;-67
2021/08/25 05:25:55;;;;;;;14.53;10.53;;;;;;;;;;5055518;28;20464;-67
2021/08/25 05:28:21;;;;;;;14.20;10.60;;;;;;;;;;5048743;28;20532;-68
2021/08/25 05:30:47;;;;;;;15.17;9.60;;;;;;;;;;5036184;28;20498;-68
2021/08/25 05:33:13;;;;;;;10.83;9.30;;;;;;;;;;5039173;28;20963;-68
2021/08/25 05:35:39;;;;;;;14.07;9.93;;;;;;;;;;5055399;28;20441;-68
2021/08/25 05:38:05;;;;;;;11.60;10.00;;;;;;;;;;5053950;28;20445;-69
2021/08/25 05:40:31;;;;;;;16.20;9.70;;;;;;;;;;5055286;28;20495;-67
2021/08/25 05:42:57;;;;;;;9.50;7.60;;;;;;;;;;5052233;28;20406;-68
2021/08/25 05:45:23;;;;;;;10.30;9.07;;;;;;;;;;5035072;28;20899;-68
2021/08/25 05:47:50;;;;;;;12.80;8.90;;;;;;;;;;5035048;28;20438;-68
2021/08/25 05:50:19;;;;;;;11.83;8.90;;;;;;;;;;5050869;28;20434;-68
2021/08/25 05:52:45;;;;;;;13.47;9.27;;;;;;;;;;5054229;28;20844;-69
2021/08/25 05:55:11;;;;;;;12.67;9.53;;;;;;;;;;5033810;28;20438;-68
2021/08/25 05:57:42;;;;;;;10.70;8.40;;;;;;;;;;5034947;28;20449;-68
2021/08/25 06:00:09;;;;;;;14.63;8.67;;;;;;;;;;5035419;28;20856;-68
2021/08/25 06:02:35;;;;;;;12.43;7.73;;;;;;;;;;5034994;28;20494;-68
2021/08/25 06:05:01;;;;;;;11.00;7.83;;;;;;;;;;5033431;28;20462;-68
2021/08/25 06:07:27;;;;;;;10.37;7.80;;;;;;;;;;5035322;28;20431;-69
2021/08/25 06:09:53;;;;;;;10.27;7.80;;;;;;;;;;5051186;28;20851;-68
2021/08/25 06:12:19;;;;;;;9.00;6.93;;;;;;;;;;5054689;28;20449;-68
2021/08/25 06:14:45;;;;;;;11.80;8.27;;;;;;;;;;5053273;28;20521;-67
2021/08/25 06:17:11;;;;;;;11.87;7.03;;;;;;;;;;5054618;28;20993;-68
2021/08/25 06:19:37;;;;;;;9.63;7.20;;;;;;;;;;5053569;28;20828;-68
2021/08/25 06:22:03;;;;;;;11.77;7.23;;;;;;;;;;5053732;28;20406;-68
2021/08/25 06:24:29;;;;;;;7.80;6.00;;;;;;;;;;5050148;28;20410;-68
2021/08/25 06:26:55;;;;;;;8.37;6.27;;;;;;;;;;5054798;28;20390;-68
2021/08/25 06:29:21;;;;;;;6.30;5.40;;;;;;;;;;5052168;28;20814;-68
2021/08/25 06:31:48;;;;;;;8.20;6.43;;;;;;;;;;5053517;28;20401;-68
2021/08/25 06:34:14;;;;;;;8.90;5.30;;;;;;;;;;5053230;28;20470;-68
2021/08/25 06:36:40;;;;;;;8.90;6.37;;;;;;;;;;5054542;28;20904;-68
2021/08/25 06:39:07;;;;;;;9.93;5.47;;;;;;;;;;5048759;28;20467;-69
2021/08/25 06:41:33;;;;;;;9.00;5.60;;;;;;;;;;5034369;28;20403;-68
2021/08/25 06:43:59;;;;;;;8.17;4.83;;;;;;;;;;5033128;28;20441;-69
2021/08/25 06:46:25;;;;;;;5.03;4.13;;;;;;;;;;5034394;28;20395;-68
2021/08/25 06:48:51;;;;;;;7.53;6.10;;;;;;;;;;5034195;28;20419;-68
2021/08/25 06:51:17;;;;;;;7.00;5.77;;;;;;;;;;5034263;28;20796;-68
2021/08/25 06:53:43;;;;;;;9.03;6.20;;;;;;;;;;5034230;28;20414;-68
2021/08/25 06:56:09;;;;;;;8.47;6.30;;;;;;;;;;5046200;28;20413;-68
2021/08/25 06:58:35;;;;;;;8.23;5.67;;;;;;;;;;5046819;28;20425;-68
2021/08/25 07:01:01;;;;;;;7.97;5.57;;;;;;;;;;5048511;28;20464;-68
2021/08/25 07:03:27;;;;;;;6.80;4.10;;;;;;;;;;5050482;28;20532;-68
2021/08/25 07:05:53;;;;;;;7.53;5.63;;;;;;;;;;5048014;28;20512;-68
2021/08/25 07:08:19;;;;;;;6.50;4.87;;;;;;;;;;5038386;28;20439;-68
2021/08/25 07:10:45;;;;;;;8.83;5.20;;;;;;;;;;5050770;28;20430;-68
2021/08/25 07:13:11;;;;;;;7.23;4.40;;;;;;;;;;5035923;28;20422;-68
2021/08/25 07:15:37;;;;;;;8.80;4.30;;;;;;;;;;5044032;28;20449;-67
2021/08/25 07:18:03;;;;;;;8.97;5.00;;;;;;;;;;5045364;28;20479;-68
2021/08/25 07:20:29;;;;;;;8.40;4.20;;;;;;;;;;5034397;28;20857;-70
2021/08/25 07:22:55;;;;;;;10.07;4.47;;;;;;;;;;5050625;28;20414;-70
2021/08/25 07:25:22;;;;;;;4.50;3.30;;;;;;;;;;5036681;28;20430;-70
2021/08/25 07:27:48;;;;;;;9.13;4.30;;;;;;;;;;5036497;28;20467;-70
2021/08/25 07:30:14;;;;;;;5.83;4.37;;;;;;;;;;5044827;28;20918;-71
2021/08/25 07:32:40;;;;;;;7.20;3.67;;;;;;;;;;5040814;28;20837;-70
2021/08/25 07:35:10;;;;;;;4.63;3.73;;;;;;;;;;5044123;28;20438;-69
2021/08/25 07:37:37;;;;;;;6.70;4.10;;;;;;;;;;5033952;28;20448;-69
2021/08/25 07:40:04;;;;;;;6.03;3.57;;;;;;;;;;5045744;28;20462;-68
2021/08/25 07:42:30;;;;;;;5.63;4.10;;;;;;;;;;5037327;28;20914;-68
2021/08/25 07:44:56;;;;;;;5.77;4.70;;;;;;;;;;5033830;28;20473;-67
2021/08/25 07:47:22;;;;;;;7.10;4.17;;;;;;;;;;5046593;28;20407;-66
2021/08/25 07:49:48;;;;;;;8.47;3.60;;;;;;;;;;5040286;28;20437;-66
2021/08/25 07:52:14;;;;;;;10.30;3.80;;;;;;;;;;5039025;28;20425;-66
2021/08/25 07:54:40;;;;;;;5.40;3.30;;;;;;;;;;5040039;28;20426;-67
2021/08/25 07:57:06;;;;;;;4.67;3.60;;;;;;;;;;5047723;28;20426;-66
2021/08/25 07:59:32;;;;;;;4.10;3.30;;;;;;;;;;5041264;28;20616;-67
2021/08/25 08:01:58;;;;;;;4.53;3.50;;;;;;;;;;5043106;28;20505;-67
2021/08/25 08:04:24;;;;;;;5.73;4.00;;;;;;;;;;5048206;28;20504;-66
2021/08/25 08:06:50;;;;;;;5.30;4.20;;;;;;;;;;5041376;28;20793;-66
2021/08/25 08:09:16;;;;;;;4.33;3.30;;;;;;;;;;5048766;28;20472;-67
2021/08/25 08:11:42;;;;;;;6.87;4.63;;;;;;;;;;5048590;28;20791;-66
2021/08/25 08:14:09;;;;;;;5.27;3.90;;;;;;;;;;5043075;28;20426;-66
2021/08/25 08:16:35;;;;;;;8.13;3.80;;;;;;;;;;5036990;28;20411;-67
2021/08/25 08:19:04;;;;;;;8.87;3.77;;;;;;;;;;5041232;28;20457;-67
2021/08/25 08:21:30;;;;;;;9.00;5.00;;;;;;;;;;5036841;28;20415;-66
2021/08/25 08:23:57;;;;;;;5.10;3.77;;;;;;;;;;5037197;28;20411;-66
2021/08/25 08:26:26;;;;;;;7.13;4.70;;;;;;;;;;5050021;28;20429;-66
2021/08/25 08:28:52;;;;;;;9.33;3.70;;;;;;;;;;5042622;28;20426;-66
2021/08/25 08:31:18;;;;;;;6.67;4.40;;;;;;;;;;5046886;28;20460;-66
2021/08/25 08:33:45;;;;;;;6.80;3.47;;;;;;;;;;5055417;28;20467;-67
2021/08/25 08:36:11;;;;;;;7.53;4.40;;;;;;;;;;5042790;28;20426;-67
2021/08/25 08:38:37;;;;;;;7.20;3.93;;;;;;;;;;5037756;28;20993;-67
2021/08/25 08:41:03;;;;;;;9.83;5.33;;;;;;;;;;5039931;28;20466;-66
2021/08/25 08:43:30;;;;;;;5.43;4.10;;;;;;;;;;5041112;28;20422;-66
2021/08/25 08:45:56;;;;;;;4.87;3.80;;;;;;;;;;5049781;28;20422;-66
2021/08/25 08:48:23;;;;;;;6.33;3.67;;;;;;;;;;5047504;28;20580;-66
2021/08/25 08:50:50;;;;;;;5.10;4.10;;;;;;;;;;5048057;28;20436;-66
2021/08/25 08:53:17;;;;;;;8.83;4.30;;;;;;;;;;5039154;28;20433;-67
2021/08/25 08:55:44;;;;;;;6.00;3.70;;;;;;;;;;5044611;28;20434;-67
2021/08/25 08:58:10;;;;;;;5.43;3.80;;;;;;;;;;5047689;28;20934;-67
2021/08/25 09:00:38;;;;;;;4.80;3.53;;;;;;;;;;5047500;28;20944;-67
2021/08/25 09:03:17;;;;;;;5.47;4.30;;;;;;;;;;5038106;28;20431;-67
2021/08/25 09:05:43;;;;;;;4.67;3.43;;;;;;;;;;5049556;28;20422;-66
2021/08/25 09:08:09;;;;;;;5.70;4.17;;;;;;;;;;5037907;28;20444;-67
2021/08/25 09:10:36;;;;;;;8.40;3.60;;;;;;;;;;5044417;28;20505;-67
2021/08/25 09:13:06;;;;;;;6.10;3.77;;;;;;;;;;5043748;28;20487;-67
2021/08/25 09:15:43;;;;;;;6.30;3.83;;;;;;;;;;5044990;28;20427;-67
2021/08/25 09:18:09;;;;;;;6.97;3.30;;;;;;;;;;5034662;28;20446;-67
2021/08/25 09:20:39;;;;;;;5.60;3.30;;;;;;;;;;5037824;28;20801;-66
2021/08/25 09:23:07;;;;;;;7.23;3.93;;;;;;;;;;5035749;28;20792;-67
2021/08/25 09:25:33;;;;;;;5.20;3.70;;;;;;;;;;5047610;28;20787;-67
2021/08/25 09:28:00;;;;;;;5.13;3.83;;;;;;;;;;5051593;28;20437;-66
2021/08/25 09:30:26;;;;;;;5.67;3.80;;;;;;;;;;5048171;28;20441;-67
2021/08/25 09:32:52;;;;;;;5.90;3.80;;;;;;;;;;5037936;28;20426;-66
2021/08/25 09:35:18;;;;;;;5.70;3.17;;;;;;;;;;5041198;28;22042;-67
2021/08/25 09:37:52;;;;;;;6.93;3.67;;;;;;;;;;5046121;28;20483;-67
2021/08/25 09:40:18;;;;;;;6.57;3.80;;;;;;;;;;5047587;28;20553;-66
2021/08/25 09:42:44;;;;;;;6.77;4.47;;;;;;;;;;5046726;28;20415;-67
2021/08/25 09:45:13;;;;;;;6.83;3.70;;;;;;;;;;5038760;28;20473;-67
2021/08/25 09:47:46;;;;;;;7.90;3.90;;;;;;;;;;5041751;28;20933;-67
2021/08/25 09:50:15;;;;;;;6.23;4.10;;;;;;;;;;5038487;28;20949;-67
2021/08/25 09:52:42;;;;;;;7.63;3.70;;;;;;;;;;5038072;28;20493;-67
2021/08/25 09:55:08;;;;;;;5.63;3.80;;;;;;;;;;5036770;28;20434;-67
2021/08/25 09:57:44;;;;;;;7.53;4.50;;;;;;;;;;5038277;28;20982;-67
2021/08/25 10:00:12;;;;;;;5.97;3.67;;;;;;;;;;5045072;28;20484;-67
2021/08/25 10:02:39;;;;;;;5.60;3.50;;;;;;;;;;5034429;28;20919;-67
2021/08/25 10:05:05;;;;;;;10.07;3.93;;;;;;;;;;5038696;28;20508;-67
2021/08/25 10:07:33;;;;;;;10.37;4.37;;;;;;;;;;5048618;28;20425;-66
2021/08/25 10:09:59;;;;;;;6.27;3.67;;;;;;;;;;5052481;28;20430;-67
2021/08/25 10:12:25;;;;;;;5.90;3.43;;;;;;;;;;5052451;28;20934;-68
2021/08/25 10:14:51;;;;;;;6.60;3.60;;;;;;;;;;5038070;28;20430;-68
2021/08/25 10:17:36;;;;;;;6.47;3.93;;;;;;;;;;5042359;28;20788;-67
2021/08/25 10:20:22;;;;;;;5.20;3.50;;;;;;;;;;5046398;28;20457;-66
2021/08/25 10:22:48;;;;;;;5.20;3.00;;;;;;;;;;5053114;28;20418;-67
2021/08/25 10:25:14;;;;;;;5.00;3.00;;;;;;;;;;5038198;28;20437;-67
2021/08/25 10:27:59;;;;;;;7.40;4.20;;;;;;;;;;5039522;28;20473;-67
2021/08/25 10:30:25;;;;;;;6.67;4.17;;;;;;;;;;5033836;28;20527;-67
2021/08/25 10:32:51;;;;;;;6.80;3.63;;;;;;;;;;5038961;28;20418;-67
2021/08/25 10:35:33;;;;;;;5.73;3.73;;;;;;;;;;5039032;28;20490;-67
2021/08/25 10:38:17;;;;;;;7.00;4.00;;;;;;;;;;5040297;28;20438;-67
2021/08/25 10:40:43;;;;;;;4.80;3.47;;;;;;;;;;5047014;28;20546;-67
2021/08/25 10:43:09;;;;;;;6.60;4.00;;;;;;;;;;5051820;28;20894;-67
2021/08/25 10:45:44;;;;;;;6.17;3.80;;;;;;;;;;5041912;28;20479;-67
2021/08/25 10:48:10;;;;;;;5.47;3.30;;;;;;;;;;5033628;28;20479;-66
2021/08/25 10:50:48;;;;;;;6.37;3.37;;;;;;;;;;5040318;28;20488;-67
2021/08/25 10:53:29;;;;;;;5.30;3.47;;;;;;;;;;5047076;28;20950;-67
2021/08/25 10:56:04;;;;;;;4.53;3.10;;;;;;;;;;5037161;28;20430;-67
2021/08/25 10:58:46;;;;;;;6.80;4.07;;;;;;;;;;5033118;28;20450;-67
2021/08/25 11:01:30;;;;;;;5.77;3.70;;;;;;;;;;5038232;28;20446;-67
2021/08/25 11:04:00;;;;;;;8.53;3.73;;;;;;;;;;5038884;28;20444;-68
2021/08/25 11:06:28;;;;;;;6.33;3.83;;;;;;;;;;5033323;28;21041;-67
2021/08/25 11:08:54;;;;;;;6.13;4.00;;;;;;;;;;5031337;28;20481;-68
2021/08/25 11:11:20;;;;;;;6.00;3.63;;;;;;;;;;5045052;28;20568;-67
2021/08/25 11:13:46;;;;;;;6.93;4.10;;;;;;;;;;5050293;28;20501;-67
2021/08/25 11:16:25;;;;;;;6.67;3.80;;;;;;;;;;5049283;28;20925;-67
2021/08/25 11:18:51;;;;;;;5.83;3.53;;;;;;;;;;5053172;28;20429;-65
2021/08/25 11:21:17;;;;;;;6.77;3.57;;;;;;;;;;5049456;28;20437;-67
2021/08/25 11:23:55;;;;;;;5.97;3.53;;;;;;;;;;5050793;28;20417;-68
2021/08/25 11:26:22;;;;;;;6.80;4.03;;;;;;;;;;5040121;28;21164;-67
2021/08/25 11:28:48;;;;;;;7.60;4.60;;;;;;;;;;5041219;28;20526;-68
2021/08/25 11:31:15;;;;;;;5.37;3.60;;;;;;;;;;5040889;28;20418;-67
2021/08/25 11:33:45;;;;;;;5.80;3.77;;;;;;;;;;5040848;28;20481;-68
2021/08/25 11:36:11;;;;;;;5.50;3.57;;;;;;;;;;5039153;28;20429;-68
2021/08/25 11:38:40;;;;;;;6.87;3.30;;;;;;;;;;5051285;28;20469;-68
2021/08/25 11:41:07;;;;;;;5.50;3.60;;;;;;;;;;5034074;28;20477;-68
2021/08/25 11:43:36;;;;;;;6.93;4.03;;;;;;;;;;5040595;28;20436;-67
2021/08/25 11:46:02;;;;;;;6.00;3.50;;;;;;;;;;5047007;28;20442;-67
2021/08/25 11:48:29;;;;;;;7.80;3.90;;;;;;;;;;5042796;28;20434;-67
2021/08/25 11:50:56;;;;;;;7.30;3.97;;;;;;;;;;5039099;28;20572;-69
2021/08/25 11:53:23;;;;;;;5.90;4.20;;;;;;;;;;5046649;28;20994;-68
2021/08/25 11:55:51;;;;;;;6.83;3.93;;;;;;;;;;5037496;28;20422;-68
2021/08/25 11:58:21;;;;;;;6.50;3.70;;;;;;;;;;5045083;28;20508;-68
2021/08/25 12:00:47;;;;;;;6.97;4.13;;;;;;;;;;5033097;28;20469;-69
2021/08/25 12:03:14;;;;;;;6.73;3.70;;;;;;;;;;5036651;28;20823;-68
2021/08/25 12:05:41;;;;;;;5.87;4.13;;;;;;;;;;5040512;28;20426;-68
2021/08/25 12:08:14;;;;;;;7.60;3.87;;;;;;;;;;5034892;28;20518;-68
2021/08/25 12:10:41;;;;;;;5.73;3.33;;;;;;;;;;5037444;28;20845;-69
2021/08/25 12:13:11;;;;;;;5.97;4.07;;;;;;;;;;5046217;28;20452;-68
2021/08/25 12:15:53;;;;;;;7.17;3.80;;;;;;;;;;5041333;28;20925;-68
2021/08/25 12:18:23;;;;;;;5.77;3.70;;;;;;;;;;5033363;28;20499;-68
2021/08/25 12:20:53;;;;;;;7.97;4.20;;;;;;;;;;5035706;28;20826;-68
2021/08/25 12:23:23;;;;;;;10.57;4.50;;;;;;;;;;5040839;28;20425;-68
2021/08/25 12:25:50;;;;;;;6.53;3.97;;;;;;;;;;5048797;28;20810;-69
2021/08/25 12:28:36;;;;;;;5.23;3.33;;;;;;;;;;5044413;28;20457;-68
2021/08/25 12:31:11;;;;;;;7.50;4.30;;;;;;;;;;5049613;28;20428;-68
2021/08/25 12:33:37;;;;;;;4.80;3.13;;;;;;;;;;5036607;28;20426;-68
2021/08/25 12:36:19;;;;;;;6.30;4.20;;;;;;;;;;5032904;28;20791;-69
2021/08/25 12:38:45;;;;;;;6.03;3.90;;;;;;;;;;5037163;28;20461;-68
2021/08/25 12:41:11;;;;;;;6.47;4.47;;;;;;;;;;5042478;28;20531;-69
2021/08/25 12:43:37;;;;;;;9.33;4.30;;;;;;;;;;5035530;28;20487;-67
2021/08/25 12:46:03;;;;;;;6.80;4.23;;;;;;;;;;5040778;28;20505;-67
2021/08/25 12:48:29;;;;;;;4.40;3.10;;;;;;;;;;5042716;28;20469;-67
2021/08/25 12:50:55;;;;;;;5.57;3.77;;;;;;;;;;5049802;28;20464;-67
2021/08/25 12:53:21;;;;;;;5.77;3.33;;;;;;;;;;5043570;28;20843;-67
2021/08/25 12:55:47;;;;;;;7.40;4.40;;;;;;;;;;5035802;28;20505;-67
2021/08/25 12:58:13;;;;;;;6.80;3.80;;;;;;;;;;5046573;28;20486;-67
2021/08/25 13:00:39;;;;;;;7.30;4.03;;;;;;;;;;5038948;28;20485;-66
2021/08/25 13:03:06;;;;;;;8.30;3.60;;;;;;;;;;5045461;28;20467;-66
2021/08/25 13:05:32;;;;;;;7.73;4.67;;;;;;;;;;5039266;28;20409;-67
2021/08/25 13:07:58;;;;;;;6.67;3.90;;;;;;;;;;5047791;28;20446;-66
2021/08/25 13:10:25;;;;;;;4.87;3.60;;;;;;;;;;5040248;28;20483;-66
2021/08/25 13:12:51;;;;;;;7.83;4.57;;;;;;;;;;5048104;28;20763;-66
2021/08/25 13:15:17;;;;;;;7.90;4.27;;;;;;;;;;5051024;28;20428;-67
2021/08/25 13:17:43;;;;;;;8.73;4.60;;;;;;;;;;5045899;28;20455;-67
2021/08/25 13:20:09;;;;;;;8.17;4.33;;;;;;;;;;5040946;28;20969;-67
2021/08/25 13:22:35;;;;;;;9.00;4.10;;;;;;;;;;5034334;28;20462;-67
2021/08/25 13:25:01;;;;;;;8.20;4.67;;;;;;;;;;5036120;28;20407;-67
2021/08/25 13:27:27;;;;;;;8.70;3.60;;;;;;;;;;5041567;28;20491;-67
2021/08/25 13:29:53;;;;;;;5.77;4.20;;;;;;;;;;5035236;28;20476;-68
2021/08/25 13:32:19;;;;;;;6.90;4.07;;;;;;;;;;5047718;28;20429;-69
2021/08/25 13:34:46;;;;;;;6.17;4.10;;;;;;;;;;5045907;28;20480;-69
2021/08/25 13:37:12;;;;;;;7.43;4.37;;;;;;;;;;5048757;28;20417;-68
2021/08/25 13:39:39;;;;;;;7.60;3.87;;;;;;;;;;5053715;28;20466;-68
2021/08/25 13:42:06;;;;;;;5.77;3.50;;;;;;;;;;5039860;28;20430;-69
2021/08/25 13:44:31;;;;;;;7.20;4.40;;;;;;;;;;5044098;28;20414;-69
2021/08/25 13:46:57;;;;;;;6.70;4.17;;;;;;;;;;5045130;28;20923;-68
2021/08/25 13:49:23;;;;;;;6.90;3.93;;;;;;;;;;5041232;28;20442;-69
2021/08/25 13:51:50;;;;;;;6.50;3.73;;;;;;;;;;5038850;28;20429;-66
2021/08/25 13:54:16;;;;;;;6.20;3.93;;;;;;;;;;5046268;28;20434;-68
2021/08/25 13:56:42;;;;;;;7.70;4.47;;;;;;;;;;5038341;28;20431;-70
2021/08/25 13:59:08;;;;;;;7.33;4.33;;;;;;;;;;5051403;28;20434;-68
2021/08/25 14:01:34;;;;;;;5.63;3.80;;;;;;;;;;5044799;28;20930;-69
2021/08/25 14:04:00;;;;;;;9.43;4.90;;;;;;;;;;5038775;28;20797;-69
2021/08/25 14:06:28;;;;;;;7.20;4.00;;;;;;;;;;5038739;28;20411;-69
2021/08/25 14:08:54;;;;;;;9.10;4.97;;;;;;;;;;5045536;28;20820;-68
2021/08/25 14:11:20;;;;;;;6.77;4.40;;;;;;;;;;5049839;28;20438;-72
2021/08/25 14:13:46;;;;;;;9.10;4.93;;;;;;;;;;5044665;28;20441;-68
2021/08/25 14:16:13;;;;;;;8.23;4.47;;;;;;;;;;5041928;28;20433;-69
2021/08/25 14:18:39;;;;;;;7.63;4.37;;;;;;;;;;5033504;28;20459;-69
2021/08/25 14:21:06;;;;;;;8.27;4.40;;;;;;;;;;5036720;28;20966;-69
2021/08/25 14:23:32;;;;;;;8.00;4.13;;;;;;;;;;5042999;28;20441;-68
2021/08/25 14:25:58;;;;;;;7.00;3.93;;;;;;;;;;5037520;28;20425;-68
2021/08/25 14:28:25;;;;;;;6.00;3.30;;;;;;;;;;5044646;28;20449;-69
2021/08/25 14:30:54;;;;;;;5.80;3.20;;;;;;;;;;5045697;28;20466;-68
2021/08/25 14:33:21;;;;;;;6.53;4.10;;;;;;;;;;5042403;28;20437;-68
2021/08/25 14:35:47;;;;;;;6.30;3.40;;;;;;;;;;5034793;28;20943;-70
2021/08/25 14:38:13;;;;;;;7.40;3.73;;;;;;;;;;5037204;28;20942;-69